Zlatoust — UZDA — position and weather

sailwx.info

Track history (hours):
 
Tides and Currents Weather Stations Pressure Air Temp Water Temp Dewpoint Dewpoint Depression Visibility Wind Speed Wind Dir Waves Ship Positions

Zlatoust

Last reported at 2017-Dec-14 03:46 UTC. Time now 2017-Dec-18 01:37 UTC.
Position N 44°19' E 028°03'.

Length 32 m; draft 2.2 m.

Type: Ship. MMSI: 272029700.

Date/timePositionNaut miles runAvg speedWind from/ knotsBaromVisibWave heightAir tempDewpointWater temp
2017-Dec-14 03:46N 44°19' E 028°03'1 1.6
2017-Dec-14 03:20N 44°18' E 028°03'2 5.4
2017-Dec-14 03:00N 44°17' E 028°05'3 5.4
2017-Dec-14 02:30N 44°16' E 028°08'3 5.3
2017-Dec-14 02:00N 44°16' E 028°12'3 5.3
2017-Dec-14 01:31N 44°15' E 028°16'3 5.4
2017-Dec-14 01:00N 44°15' E 028°20'3 5.1
2017-Dec-14 00:30N 44°14' E 028°22'3 5.3
2017-Dec-14 00:00N 44°11' E 028°24'6 4.7
2017-Dec-13 22:43N 44°06' E 028°28'1 4.5
2017-Dec-13 22:25N 44°06' E 028°30'2 4.2
2017-Dec-13 21:59N 44°06' E 028°33'2 4.2
2017-Dec-13 21:30N 44°06' E 028°35'1 2.6
2017-Dec-13 21:00N 44°06' E 028°37'0 0.2
2017-Dec-13 20:30N 44°06' E 028°37'1 1.4
2017-Dec-13 20:00N 44°06' E 028°38'2 3.1
2017-Dec-13 19:30N 44°07' E 028°39'0 0.2
2017-Dec-13 19:00N 44°07' E 028°39'0 0.0
2017-Dec-13 18:30N 44°07' E 028°39'0 0.0
2017-Dec-13 18:00N 44°07' E 028°39'0 0.0
2017-Dec-13 17:30N 44°07' E 028°39'1 1.0
2017-Dec-13 17:00N 44°07' E 028°39'0 0.0
2017-Dec-13 16:27N 44°07' E 028°39'0 0.0
2017-Dec-13 16:00N 44°07' E 028°39'0 0.0
2017-Dec-13 15:30N 44°07' E 028°39'0 0.0
2017-Dec-13 15:00N 44°07' E 028°39'0 0.0
2017-Dec-13 14:30N 44°07' E 028°39'0 0.0
2017-Dec-13 14:00N 44°07' E 028°39'0 0.0
2017-Dec-13 13:30N 44°07' E 028°39'0 0.0
2017-Dec-13 13:00N 44°07' E 028°39'0 0.0
2017-Dec-13 12:27N 44°07' E 028°39'0 0.0
2017-Dec-13 12:00N 44°07' E 028°39'0 0.0
2017-Dec-13 11:30N 44°07' E 028°39'0 0.0
2017-Dec-13 11:00N 44°07' E 028°39'0 0.0
2017-Dec-13 10:30N 44°07' E 028°39'0 0.0
2017-Dec-13 10:00N 44°07' E 028°39'0 0.0
2017-Dec-13 09:27N 44°07' E 028°39'0 0.0
2017-Dec-13 09:00N 44°07' E 028°39'0 0.0
2017-Dec-13 08:30N 44°07' E 028°39'0 0.0
2017-Dec-13 08:00N 44°07' E 028°39'0 0.0
2017-Dec-13 07:30N 44°07' E 028°39'0 0.0
2017-Dec-13 07:00N 44°07' E 028°39'0 0.0
2017-Dec-13 06:30N 44°07' E 028°39'0 0.0
2017-Dec-13 06:00N 44°07' E 028°39'0 0.0
2017-Dec-13 05:30N 44°07' E 028°39'0 0.0
2017-Dec-13 05:00N 44°07' E 028°39'0 0.0
2017-Dec-13 04:30N 44°07' E 028°39'0 0.0
2017-Dec-13 04:00N 44°07' E 028°39'0 0.0
2017-Dec-13 03:30N 44°07' E 028°39'0 0.0
2017-Dec-13 03:00N 44°07' E 028°39'0 0.0
2017-Dec-13 02:24N 44°07' E 028°39'0 0.0
2017-Dec-13 02:00N 44°07' E 028°39'0 0.0
2017-Dec-13 01:30N 44°07' E 028°39'0 0.0
2017-Dec-13 01:00N 44°07' E 028°39'0 0.0
2017-Dec-13 00:30N 44°07' E 028°39'0 0.0
2017-Dec-13 00:00N 44°07' E 028°39'0 0.0
2017-Dec-12 23:30N 44°07' E 028°39'0 0.0
2017-Dec-12 22:57N 44°07' E 028°39'0 0.0
2017-Dec-12 22:30N 44°07' E 028°39'0 0.0
2017-Dec-12 22:00N 44°07' E 028°39'0 0.0
2017-Dec-12 21:30N 44°07' E 028°39'0 0.0
2017-Dec-12 21:00N 44°07' E 028°39'0 0.0
2017-Dec-12 20:30N 44°07' E 028°39'0 0.0
2017-Dec-12 20:00N 44°07' E 028°39'0 0.0
2017-Dec-12 19:30N 44°07' E 028°39'0 0.0
2017-Dec-12 19:00N 44°07' E 028°39'0 0.0
2017-Dec-12 18:30N 44°07' E 028°39'0 0.0
2017-Dec-12 18:00N 44°07' E 028°39'0 0.0
2017-Dec-12 17:27N 44°07' E 028°39'0 0.0
2017-Dec-12 17:00N 44°07' E 028°39'0 0.0
2017-Dec-12 16:30N 44°07' E 028°39'0 0.0
2017-Dec-12 16:00N 44°07' E 028°39'0 0.0
2017-Dec-12 15:30N 44°07' E 028°39'0 0.0
2017-Dec-12 15:00N 44°07' E 028°39'0 0.0
2017-Dec-12 14:30N 44°07' E 028°39'0 0.0
2017-Dec-12 14:00N 44°07' E 028°39'0 0.0
2017-Dec-12 13:30N 44°07' E 028°39'0 0.0
2017-Dec-12 13:00N 44°07' E 028°39'0 0.0
2017-Dec-12 12:30N 44°07' E 028°39'0 0.0
2017-Dec-12 12:00N 44°07' E 028°39'0 0.0
2017-Dec-12 11:30N 44°07' E 028°39'0 0.0
2017-Dec-12 11:00N 44°07' E 028°39'0 0.0
2017-Dec-12 10:30N 44°07' E 028°39'0 0.0
2017-Dec-12 10:00N 44°07' E 028°39'0 0.0
2017-Dec-12 09:30N 44°07' E 028°39'0 0.0
2017-Dec-12 09:00N 44°07' E 028°39'0 0.0
2017-Dec-12 08:30N 44°07' E 028°39'0 0.0
2017-Dec-12 08:00N 44°07' E 028°39'0 0.0
2017-Dec-12 07:30N 44°07' E 028°39'0 0.0
2017-Dec-12 07:00N 44°07' E 028°39'0 0.0
2017-Dec-12 06:30N 44°07' E 028°39'0 0.0
2017-Dec-12 06:00N 44°07' E 028°39'0 0.0
2017-Dec-12 05:30N 44°07' E 028°39'0 0.0
2017-Dec-12 05:00N 44°07' E 028°39'0 0.0
2017-Dec-12 04:30N 44°07' E 028°39'0 0.0
2017-Dec-12 04:00N 44°07' E 028°39'0 0.0
2017-Dec-12 03:30N 44°07' E 028°39'0 0.0
2017-Dec-12 03:00N 44°07' E 028°39'0 0.0
2017-Dec-12 02:30N 44°07' E 028°39'0 0.0
2017-Dec-12 02:00N 44°07' E 028°39'0 0.0
2017-Dec-12 01:30N 44°07' E 028°39'0 0.0
2017-Dec-12 01:00N 44°07' E 028°39'0 0.0
2017-Dec-12 00:30N 44°07' E 028°39'0 0.0
2017-Dec-12 00:00N 44°07' E 028°39'0 0.0
2017-Dec-11 23:30N 44°07' E 028°39'0 0.0
2017-Dec-11 23:00N 44°07' E 028°39'0 0.0
2017-Dec-11 22:30N 44°07' E 028°39'0 0.0
2017-Dec-11 22:00N 44°07' E 028°39'0 0.0
2017-Dec-11 21:30N 44°07' E 028°39'0 0.0
2017-Dec-11 21:00N 44°07' E 028°39'0 0.0
2017-Dec-11 20:30N 44°07' E 028°39'0 0.0
2017-Dec-11 20:00N 44°07' E 028°39'0 0.0
2017-Dec-11 19:30N 44°07' E 028°39'0 0.0
2017-Dec-11 19:00N 44°07' E 028°39'0 0.0
2017-Dec-11 18:30N 44°07' E 028°39'0 0.0
2017-Dec-11 18:00N 44°07' E 028°39'0 0.0
2017-Dec-11 17:30N 44°07' E 028°39'0 0.0
2017-Dec-11 17:00N 44°07' E 028°39'0 0.0
2017-Dec-11 16:30N 44°07' E 028°39'0 0.0
2017-Dec-11 16:00N 44°07' E 028°39'0 0.0
2017-Dec-11 15:30N 44°07' E 028°39'0 0.0
2017-Dec-11 15:00N 44°07' E 028°39'0 0.0
2017-Dec-11 14:30N 44°07' E 028°39'0 0.0
2017-Dec-11 14:00N 44°07' E 028°39'0 0.0
2017-Dec-11 13:27N 44°07' E 028°39'0 0.0
2017-Dec-11 13:00N 44°07' E 028°39'0 0.0
2017-Dec-11 12:30N 44°07' E 028°39'0 0.0
2017-Dec-11 12:00N 44°07' E 028°39'0 0.0
2017-Dec-11 11:30N 44°07' E 028°39'0 0.0
2017-Dec-11 11:00N 44°07' E 028°39'0 0.0
2017-Dec-11 10:30N 44°07' E 028°39'0 0.0
2017-Dec-11 10:00N 44°07' E 028°39'0 0.0
2017-Dec-11 09:30N 44°07' E 028°39'0 0.0
2017-Dec-11 09:00N 44°07' E 028°39'0 0.0
2017-Dec-11 08:30N 44°07' E 028°39'0 0.0
2017-Dec-11 08:00N 44°07' E 028°39'0 0.0
2017-Dec-11 07:30N 44°07' E 028°39'0 0.0
2017-Dec-11 07:00N 44°07' E 028°39'0 0.0
2017-Dec-11 06:27N 44°07' E 028°39'0 0.0
2017-Dec-11 06:00N 44°07' E 028°39'0 0.0
2017-Dec-11 05:27N 44°07' E 028°39'0 0.0
2017-Dec-11 04:57N 44°07' E 028°39'0 0.0
2017-Dec-11 04:30N 44°07' E 028°39'0 0.0
2017-Dec-11 03:57N 44°07' E 028°39'0 0.0
2017-Dec-11 03:27N 44°07' E 028°39'0 0.0
2017-Dec-11 02:57N 44°07' E 028°39'0 0.0
2017-Dec-11 02:27N 44°07' E 028°39'0 0.0
2017-Dec-11 02:00N 44°07' E 028°39'0 0.0
2017-Dec-11 01:27N 44°07' E 028°39'0 0.0
2017-Dec-11 01:00N 44°07' E 028°39'0 0.0
2017-Dec-11 00:30N 44°07' E 028°39'0 0.0
2017-Dec-11 00:00N 44°07' E 028°39'0 0.0
2017-Dec-10 23:30N 44°07' E 028°39'0 0.0
2017-Dec-10 22:51N 44°07' E 028°39'0 0.0
2017-Dec-10 22:30N 44°07' E 028°39'0 0.0
2017-Dec-10 21:57N 44°07' E 028°39'0 0.0
2017-Dec-10 21:30N 44°07' E 028°39'0 0.0
2017-Dec-10 21:00N 44°07' E 028°39'0 0.0
2017-Dec-10 20:30N 44°07' E 028°39'0 0.0
2017-Dec-10 19:57N 44°07' E 028°39'0 0.0
2017-Dec-10 19:30N 44°07' E 028°39'0 0.0
2017-Dec-10 19:00N 44°07' E 028°39'0 0.0
2017-Dec-10 18:30N 44°07' E 028°39'0 0.0
2017-Dec-10 18:00N 44°07' E 028°39'0 0.0
2017-Dec-10 17:30N 44°07' E 028°39'0 0.0
2017-Dec-10 17:00N 44°07' E 028°39'0 0.0
2017-Dec-10 16:30N 44°07' E 028°39'0 0.0
2017-Dec-10 16:00N 44°07' E 028°39'0 0.0
2017-Dec-10 15:30N 44°07' E 028°39'0 0.0
2017-Dec-10 15:00N 44°07' E 028°39'0 0.0
2017-Dec-10 14:30N 44°07' E 028°39'0 0.0
2017-Dec-10 14:00N 44°07' E 028°39'0 0.0
2017-Dec-10 13:30N 44°07' E 028°39'0 0.0
2017-Dec-10 13:00N 44°07' E 028°39'0 0.0
2017-Dec-10 12:30N 44°07' E 028°39'0 0.0
2017-Dec-10 12:00N 44°07' E 028°39'0 0.0
2017-Dec-10 11:30N 44°07' E 028°39'0 0.0
2017-Dec-10 11:00N 44°07' E 028°39'0 0.0
2017-Dec-10 10:30N 44°07' E 028°39'0 0.0
2017-Dec-10 10:00N 44°07' E 028°39'0 0.0
2017-Dec-10 09:30N 44°07' E 028°39'0 0.0
2017-Dec-10 09:00N 44°07' E 028°39'0 0.0
2017-Dec-10 08:30N 44°07' E 028°39'0 0.0
2017-Dec-10 08:00N 44°07' E 028°39'0 0.0
2017-Dec-10 07:30N 44°07' E 028°39'0 0.0
2017-Dec-10 07:00N 44°07' E 028°39'0 0.0
2017-Dec-10 06:27N 44°07' E 028°39'0 0.0
2017-Dec-10 06:00N 44°07' E 028°39'0 0.0
2017-Dec-10 05:30N 44°07' E 028°39'0 0.0
2017-Dec-10 04:57N 44°07' E 028°39'0 0.0
2017-Dec-10 04:30N 44°07' E 028°39'0 0.0
2017-Dec-10 04:00N 44°07' E 028°39'0 0.0
2017-Dec-10 03:30N 44°07' E 028°39'0 0.0
2017-Dec-10 03:00N 44°07' E 028°39'0 0.0
2017-Dec-10 02:30N 44°07' E 028°39'0 0.0
2017-Dec-10 02:00N 44°07' E 028°39'0 0.0
2017-Dec-10 01:30N 44°07' E 028°39'0 0.0
2017-Dec-10 01:00N 44°07' E 028°39'0 0.0
2017-Dec-10 00:30N 44°07' E 028°39'0 0.0
2017-Dec-10 00:00N 44°07' E 028°39'0 0.0
2017-Dec-09 23:30N 44°07' E 028°39'0 0.0
2017-Dec-09 23:00N 44°07' E 028°39'0 0.0
2017-Dec-09 22:30N 44°07' E 028°39'0 0.0
2017-Dec-09 22:00N 44°07' E 028°39'0 0.0
2017-Dec-09 21:30N 44°07' E 028°39'0 0.0
2017-Dec-09 21:00N 44°07' E 028°39'0 0.0
2017-Dec-09 20:30N 44°07' E 028°39'0 0.0
2017-Dec-09 20:00N 44°07' E 028°39'0 0.0
2017-Dec-09 19:30N 44°07' E 028°39'0 0.0
2017-Dec-09 19:00N 44°07' E 028°39'0 0.0
2017-Dec-09 18:30N 44°07' E 028°39'0 0.0
2017-Dec-09 18:00N 44°07' E 028°39'0 0.0
2017-Dec-09 17:30N 44°07' E 028°39'0 0.0
2017-Dec-09 17:00N 44°07' E 028°39'0 0.0
2017-Dec-09 16:24N 44°07' E 028°39'0 0.0
2017-Dec-09 16:00N 44°07' E 028°39'0 0.0
2017-Dec-09 15:30N 44°07' E 028°39'0 0.0
2017-Dec-09 15:00N 44°07' E 028°39'0 0.0
2017-Dec-09 14:30N 44°07' E 028°39'0 0.0
2017-Dec-09 14:00N 44°07' E 028°39'0 0.0
2017-Dec-09 13:30N 44°07' E 028°39'0 0.0
2017-Dec-09 13:00N 44°07' E 028°39'0 0.0
2017-Dec-09 12:30N 44°07' E 028°39'0 0.0
2017-Dec-09 12:00N 44°07' E 028°39'0 0.0
2017-Dec-09 11:30N 44°07' E 028°39'0 0.0
2017-Dec-09 11:00N 44°07' E 028°39'0 0.0
2017-Dec-09 10:27N 44°07' E 028°39'0 0.0
2017-Dec-09 09:57N 44°07' E 028°39'0 0.0
2017-Dec-09 09:30N 44°07' E 028°39'0 0.0
2017-Dec-09 09:00N 44°07' E 028°39'0 0.0
2017-Dec-09 08:30N 44°07' E 028°39'0 0.0
2017-Dec-09 08:00N 44°07' E 028°39'0 0.0
2017-Dec-09 07:30N 44°07' E 028°39'0 0.0
2017-Dec-09 07:00N 44°07' E 028°39'0 0.0
2017-Dec-09 06:30N 44°07' E 028°39'0 0.0
2017-Dec-09 06:00N 44°07' E 028°39'0 0.0
2017-Dec-09 05:30N 44°07' E 028°39'0 0.0
2017-Dec-09 05:00N 44°07' E 028°39'0 0.0
2017-Dec-09 04:30N 44°07' E 028°39'0 0.0
2017-Dec-09 04:00N 44°07' E 028°39'0 0.0
2017-Dec-09 03:30N 44°07' E 028°39'0 0.0
2017-Dec-09 03:00N 44°07' E 028°39'0 0.0
2017-Dec-09 02:30N 44°07' E 028°39'0 0.0
2017-Dec-09 02:00N 44°07' E 028°39'0 0.0
2017-Dec-09 01:27N 44°07' E 028°39'0 0.0
2017-Dec-09 01:00N 44°07' E 028°39'0 0.0
2017-Dec-09 00:30N 44°07' E 028°39'0 0.0
2017-Dec-09 00:00N 44°07' E 028°39'0 0.0
2017-Dec-08 23:30N 44°07' E 028°39'0 0.0
2017-Dec-08 23:00N 44°07' E 028°39'0 0.0
2017-Dec-08 22:30N 44°07' E 028°39'0 0.0
2017-Dec-08 22:00N 44°07' E 028°39'0 0.0
2017-Dec-08 21:30N 44°07' E 028°39'0 0.0
2017-Dec-08 21:00N 44°07' E 028°39'0 0.0
2017-Dec-08 20:30N 44°07' E 028°39'0 0.0
2017-Dec-08 20:00N 44°07' E 028°39'0 0.0
2017-Dec-08 19:30N 44°07' E 028°39'0 0.0
2017-Dec-08 19:00N 44°07' E 028°39'0 0.0
2017-Dec-08 18:30N 44°07' E 028°39'0 0.0
2017-Dec-08 18:00N 44°07' E 028°39'0 0.0
2017-Dec-08 17:30N 44°07' E 028°39'0 0.0
2017-Dec-08 16:54N 44°07' E 028°39'0 0.0
2017-Dec-08 16:27N 44°07' E 028°39'0 0.0
2017-Dec-08 16:00N 44°07' E 028°39'0 0.0
2017-Dec-08 15:30N 44°07' E 028°39'0 0.0
2017-Dec-08 15:00N 44°07' E 028°39'0 0.0
2017-Dec-08 14:30N 44°07' E 028°39'0 0.0
2017-Dec-08 14:00N 44°07' E 028°39'0 0.0
2017-Dec-08 13:30N 44°07' E 028°39'0 0.0
2017-Dec-08 13:00N 44°07' E 028°39'0 0.0
2017-Dec-08 12:30N 44°07' E 028°39'0 0.0
2017-Dec-08 11:57N 44°07' E 028°39'0 0.0
2017-Dec-08 11:30N 44°07' E 028°39'0 0.0
2017-Dec-08 10:57N 44°07' E 028°39'0 0.0
2017-Dec-08 10:30N 44°07' E 028°39'0 0.0
2017-Dec-08 10:00N 44°07' E 028°39'0 0.0
2017-Dec-08 09:30N 44°07' E 028°39'0 0.0
2017-Dec-08 09:00N 44°07' E 028°39'0 0.0
2017-Dec-08 08:30N 44°07' E 028°39'0 0.0
2017-Dec-08 08:00N 44°07' E 028°39'0 0.0
2017-Dec-08 07:30N 44°07' E 028°39'0 0.0
2017-Dec-08 07:00N 44°07' E 028°39'0 0.0
2017-Dec-08 06:30N 44°07' E 028°39'0 0.0
2017-Dec-08 06:00N 44°07' E 028°39'0 0.0
2017-Dec-08 05:30N 44°07' E 028°39'0 0.0
2017-Dec-08 05:00N 44°07' E 028°39'0 0.0
2017-Dec-08 04:30N 44°07' E 028°39'0 0.0
2017-Dec-08 04:00N 44°07' E 028°39'0 0.0
2017-Dec-08 03:30N 44°07' E 028°39'0 0.0
2017-Dec-08 03:00N 44°07' E 028°39'0 0.0
2017-Dec-08 02:30N 44°07' E 028°39'0 0.0
2017-Dec-08 02:00N 44°07' E 028°39'0 0.0
2017-Dec-08 01:30N 44°07' E 028°39'0 0.0
2017-Dec-08 01:00N 44°07' E 028°39'0 0.0
2017-Dec-08 00:30N 44°07' E 028°39'0 0.0
2017-Dec-08 00:00N 44°07' E 028°39'0 0.0
2017-Dec-07 23:30N 44°07' E 028°39'0 0.0
2017-Dec-07 23:00N 44°07' E 028°39'0 0.0
2017-Dec-07 22:27N 44°07' E 028°39'0 0.0
2017-Dec-07 22:00N 44°07' E 028°39'0 0.0
2017-Dec-07 21:30N 44°07' E 028°39'0 0.0
2017-Dec-07 21:00N 44°07' E 028°39'0 0.0
2017-Dec-07 20:30N 44°07' E 028°39'0 0.0
2017-Dec-07 20:00N 44°07' E 028°39'0 0.0
2017-Dec-07 19:30N 44°07' E 028°39'0 0.0
2017-Dec-07 19:00N 44°07' E 028°39'0 0.0
2017-Dec-07 18:30N 44°07' E 028°39'0 0.0
2017-Dec-07 18:00N 44°07' E 028°39'0 0.0
2017-Dec-07 17:30N 44°07' E 028°39'0 0.0
2017-Dec-07 17:00N 44°07' E 028°39'0 0.0
2017-Dec-07 16:30N 44°07' E 028°39'0 0.0
2017-Dec-07 16:00N 44°07' E 028°39'0 0.0
2017-Dec-07 15:30N 44°07' E 028°39'0 0.0
2017-Dec-07 15:00N 44°07' E 028°39'0 0.0
2017-Dec-07 14:30N 44°07' E 028°39'0 0.0
2017-Dec-07 14:00N 44°07' E 028°39'0 0.0
2017-Dec-07 13:30N 44°07' E 028°39'0 0.0
2017-Dec-07 12:57N 44°07' E 028°39'0 0.0
2017-Dec-07 12:30N 44°07' E 028°39'0 0.0
2017-Dec-07 12:00N 44°07' E 028°39'0 0.0
2017-Dec-07 11:30N 44°07' E 028°39'0 0.0
2017-Dec-07 11:00N 44°07' E 028°39'0 0.0
2017-Dec-07 10:30N 44°07' E 028°39'0 0.0
2017-Dec-07 10:00N 44°07' E 028°39'0 0.0
2017-Dec-07 09:30N 44°07' E 028°39'0 0.0
2017-Dec-07 09:00N 44°07' E 028°39'0 0.0
2017-Dec-07 08:30N 44°07' E 028°39'0 0.0
2017-Dec-07 08:00N 44°07' E 028°39'0 0.0
2017-Dec-07 07:30N 44°07' E 028°39'0 0.0
2017-Dec-07 07:00N 44°07' E 028°39'0 0.0
2017-Dec-07 06:30N 44°07' E 028°39'0 0.0
2017-Dec-07 06:00N 44°07' E 028°39'0 0.0
2017-Dec-07 05:30N 44°07' E 028°39'0 0.0
2017-Dec-07 05:00N 44°07' E 028°39'0 0.0
2017-Dec-07 04:21N 44°07' E 028°39'0 0.0
2017-Dec-07 04:00N 44°07' E 028°39'0 0.0
2017-Dec-07 03:30N 44°07' E 028°39'0 0.0
2017-Dec-07 03:00N 44°07' E 028°39'0 0.0
2017-Dec-07 02:30N 44°07' E 028°39'0 0.0
2017-Dec-07 02:00N 44°07' E 028°39'0 0.0
2017-Dec-07 01:30N 44°07' E 028°39'0 0.0
2017-Dec-07 01:00N 44°07' E 028°39'0 0.0
2017-Dec-07 00:30N 44°07' E 028°39'0 0.0
2017-Dec-07 00:00N 44°07' E 028°39'0 0.0
2017-Dec-06 23:30N 44°07' E 028°39'0 0.0
2017-Dec-06 23:00N 44°07' E 028°39'0 0.0
2017-Dec-06 22:30N 44°07' E 028°39'0 0.0
2017-Dec-06 22:00N 44°07' E 028°39'0 0.0
2017-Dec-06 21:30N 44°07' E 028°39'0 0.0
2017-Dec-06 21:00N 44°07' E 028°39'  
2017-Dec-04 10:24N 44°07' E 028°39'0 0.0
2017-Dec-04 10:00N 44°07' E 028°39'0 0.0
2017-Dec-04 09:30N 44°07' E 028°39'0 0.0
2017-Dec-04 09:00N 44°07' E 028°39'0 0.0
2017-Dec-04 08:31N 44°07' E 028°39'0 0.0
2017-Dec-04 07:59N 44°07' E 028°39'0 0.0
2017-Dec-04 07:29N 44°07' E 028°39'0 0.0
2017-Dec-04 06:56N 44°07' E 028°39'0 0.0
2017-Dec-04 06:29N 44°07' E 028°39'0 0.0
2017-Dec-04 05:59N 44°07' E 028°39'0 0.0
2017-Dec-04 05:29N 44°07' E 028°39'0 0.0
2017-Dec-04 04:59N 44°07' E 028°39'0 0.0
2017-Dec-04 04:29N 44°07' E 028°39'0 0.0
2017-Dec-04 03:56N 44°07' E 028°39'  
Track history (hours):
 
Tides and Currents Weather Stations Pressure Air Temp Water Temp Dewpoint Dewpoint Depression Visibility Wind Speed Wind Dir Waves Ship Positions

Zlatoust

Last reported at 2017-Dec-14 03:46 UTC. Time now 2017-Dec-18 01:37 UTC.
Position N 44°19' E 028°03'.

Length 32 m; draft 2.2 m.

Type: Ship. MMSI: 272029700.

Date/timePositionNaut miles runAvg speedWind from/ knotsBaromVisibWave heightAir tempDewpointWater temp
2017-Dec-14 03:46N 44°19' E 028°03'1 1.6
2017-Dec-14 03:20N 44°18' E 028°03'2 5.4
2017-Dec-14 03:00N 44°17' E 028°05'3 5.4
2017-Dec-14 02:30N 44°16' E 028°08'3 5.3
2017-Dec-14 02:00N 44°16' E 028°12'3 5.3
2017-Dec-14 01:31N 44°15' E 028°16'3 5.4
2017-Dec-14 01:00N 44°15' E 028°20'3 5.1
2017-Dec-14 00:30N 44°14' E 028°22'3 5.3
2017-Dec-14 00:00N 44°11' E 028°24'6 4.7
2017-Dec-13 22:43N 44°06' E 028°28'1 4.5
2017-Dec-13 22:25N 44°06' E 028°30'2 4.2
2017-Dec-13 21:59N 44°06' E 028°33'2 4.2
2017-Dec-13 21:30N 44°06' E 028°35'1 2.6
2017-Dec-13 21:00N 44°06' E 028°37'0 0.2
2017-Dec-13 20:30N 44°06' E 028°37'1 1.4
2017-Dec-13 20:00N 44°06' E 028°38'2 3.1
2017-Dec-13 19:30N 44°07' E 028°39'0 0.2
2017-Dec-13 19:00N 44°07' E 028°39'0 0.0
2017-Dec-13 18:30N 44°07' E 028°39'0 0.0
2017-Dec-13 18:00N 44°07' E 028°39'0 0.0
2017-Dec-13 17:30N 44°07' E 028°39'1 1.0
2017-Dec-13 17:00N 44°07' E 028°39'0 0.0
2017-Dec-13 16:27N 44°07' E 028°39'0 0.0
2017-Dec-13 16:00N 44°07' E 028°39'0 0.0
2017-Dec-13 15:30N 44°07' E 028°39'0 0.0
2017-Dec-13 15:00N 44°07' E 028°39'0 0.0
2017-Dec-13 14:30N 44°07' E 028°39'0 0.0
2017-Dec-13 14:00N 44°07' E 028°39'0 0.0
2017-Dec-13 13:30N 44°07' E 028°39'0 0.0
2017-Dec-13 13:00N 44°07' E 028°39'0 0.0
2017-Dec-13 12:27N 44°07' E 028°39'0 0.0
2017-Dec-13 12:00N 44°07' E 028°39'0 0.0
2017-Dec-13 11:30N 44°07' E 028°39'0 0.0
2017-Dec-13 11:00N 44°07' E 028°39'0 0.0
2017-Dec-13 10:30N 44°07' E 028°39'0 0.0
2017-Dec-13 10:00N 44°07' E 028°39'0 0.0
2017-Dec-13 09:27N 44°07' E 028°39'0 0.0
2017-Dec-13 09:00N 44°07' E 028°39'0 0.0
2017-Dec-13 08:30N 44°07' E 028°39'0 0.0
2017-Dec-13 08:00N 44°07' E 028°39'0 0.0
2017-Dec-13 07:30N 44°07' E 028°39'0 0.0
2017-Dec-13 07:00N 44°07' E 028°39'0 0.0
2017-Dec-13 06:30N 44°07' E 028°39'0 0.0
2017-Dec-13 06:00N 44°07' E 028°39'0 0.0
2017-Dec-13 05:30N 44°07' E 028°39'0 0.0
2017-Dec-13 05:00N 44°07' E 028°39'0 0.0
2017-Dec-13 04:30N 44°07' E 028°39'0 0.0
2017-Dec-13 04:00N 44°07' E 028°39'0 0.0
2017-Dec-13 03:30N 44°07' E 028°39'0 0.0
2017-Dec-13 03:00N 44°07' E 028°39'0 0.0
2017-Dec-13 02:24N 44°07' E 028°39'0 0.0
2017-Dec-13 02:00N 44°07' E 028°39'0 0.0
2017-Dec-13 01:30N 44°07' E 028°39'0 0.0
2017-Dec-13 01:00N 44°07' E 028°39'0 0.0
2017-Dec-13 00:30N 44°07' E 028°39'0 0.0
2017-Dec-13 00:00N 44°07' E 028°39'0 0.0
2017-Dec-12 23:30N 44°07' E 028°39'0 0.0
2017-Dec-12 22:57N 44°07' E 028°39'0 0.0
2017-Dec-12 22:30N 44°07' E 028°39'0 0.0
2017-Dec-12 22:00N 44°07' E 028°39'0 0.0
2017-Dec-12 21:30N 44°07' E 028°39'0 0.0
2017-Dec-12 21:00N 44°07' E 028°39'0 0.0
2017-Dec-12 20:30N 44°07' E 028°39'0 0.0
2017-Dec-12 20:00N 44°07' E 028°39'0 0.0
2017-Dec-12 19:30N 44°07' E 028°39'0 0.0
2017-Dec-12 19:00N 44°07' E 028°39'0 0.0
2017-Dec-12 18:30N 44°07' E 028°39'0 0.0
2017-Dec-12 18:00N 44°07' E 028°39'0 0.0
2017-Dec-12 17:27N 44°07' E 028°39'0 0.0
2017-Dec-12 17:00N 44°07' E 028°39'0 0.0
2017-Dec-12 16:30N 44°07' E 028°39'0 0.0
2017-Dec-12 16:00N 44°07' E 028°39'0 0.0
2017-Dec-12 15:30N 44°07' E 028°39'0 0.0
2017-Dec-12 15:00N 44°07' E 028°39'0 0.0
2017-Dec-12 14:30N 44°07' E 028°39'0 0.0
2017-Dec-12 14:00N 44°07' E 028°39'0 0.0
2017-Dec-12 13:30N 44°07' E 028°39'0 0.0
2017-Dec-12 13:00N 44°07' E 028°39'0 0.0
2017-Dec-12 12:30N 44°07' E 028°39'0 0.0
2017-Dec-12 12:00N 44°07' E 028°39'0 0.0
2017-Dec-12 11:30N 44°07' E 028°39'0 0.0
2017-Dec-12 11:00N 44°07' E 028°39'0 0.0
2017-Dec-12 10:30N 44°07' E 028°39'0 0.0
2017-Dec-12 10:00N 44°07' E 028°39'0 0.0
2017-Dec-12 09:30N 44°07' E 028°39'0 0.0
2017-Dec-12 09:00N 44°07' E 028°39'0 0.0
2017-Dec-12 08:30N 44°07' E 028°39'0 0.0
2017-Dec-12 08:00N 44°07' E 028°39'0 0.0
2017-Dec-12 07:30N 44°07' E 028°39'0 0.0
2017-Dec-12 07:00N 44°07' E 028°39'0 0.0
2017-Dec-12 06:30N 44°07' E 028°39'0 0.0
2017-Dec-12 06:00N 44°07' E 028°39'0 0.0
2017-Dec-12 05:30N 44°07' E 028°39'0 0.0
2017-Dec-12 05:00N 44°07' E 028°39'0 0.0
2017-Dec-12 04:30N 44°07' E 028°39'0 0.0
2017-Dec-12 04:00N 44°07' E 028°39'0 0.0
2017-Dec-12 03:30N 44°07' E 028°39'0 0.0
2017-Dec-12 03:00N 44°07' E 028°39'0 0.0
2017-Dec-12 02:30N 44°07' E 028°39'0 0.0
2017-Dec-12 02:00N 44°07' E 028°39'0 0.0
2017-Dec-12 01:30N 44°07' E 028°39'0 0.0
2017-Dec-12 01:00N 44°07' E 028°39'0 0.0
2017-Dec-12 00:30N 44°07' E 028°39'0 0.0
2017-Dec-12 00:00N 44°07' E 028°39'0 0.0
2017-Dec-11 23:30N 44°07' E 028°39'0 0.0
2017-Dec-11 23:00N 44°07' E 028°39'0 0.0
2017-Dec-11 22:30N 44°07' E 028°39'0 0.0
2017-Dec-11 22:00N 44°07' E 028°39'0 0.0
2017-Dec-11 21:30N 44°07' E 028°39'0 0.0
2017-Dec-11 21:00N 44°07' E 028°39'0 0.0
2017-Dec-11 20:30N 44°07' E 028°39'0 0.0
2017-Dec-11 20:00N 44°07' E 028°39'0 0.0
2017-Dec-11 19:30N 44°07' E 028°39'0 0.0
2017-Dec-11 19:00N 44°07' E 028°39'0 0.0
2017-Dec-11 18:30N 44°07' E 028°39'0 0.0
2017-Dec-11 18:00N 44°07' E 028°39'0 0.0
2017-Dec-11 17:30N 44°07' E 028°39'0 0.0
2017-Dec-11 17:00N 44°07' E 028°39'0 0.0
2017-Dec-11 16:30N 44°07' E 028°39'0 0.0
2017-Dec-11 16:00N 44°07' E 028°39'0 0.0
2017-Dec-11 15:30N 44°07' E 028°39'0 0.0
2017-Dec-11 15:00N 44°07' E 028°39'0 0.0
2017-Dec-11 14:30N 44°07' E 028°39'0 0.0
2017-Dec-11 14:00N 44°07' E 028°39'0 0.0
2017-Dec-11 13:27N 44°07' E 028°39'0 0.0
2017-Dec-11 13:00N 44°07' E 028°39'0 0.0
2017-Dec-11 12:30N 44°07' E 028°39'0 0.0
2017-Dec-11 12:00N 44°07' E 028°39'0 0.0
2017-Dec-11 11:30N 44°07' E 028°39'0 0.0
2017-Dec-11 11:00N 44°07' E 028°39'0 0.0
2017-Dec-11 10:30N 44°07' E 028°39'0 0.0
2017-Dec-11 10:00N 44°07' E 028°39'0 0.0
2017-Dec-11 09:30N 44°07' E 028°39'0 0.0
2017-Dec-11 09:00N 44°07' E 028°39'0 0.0
2017-Dec-11 08:30N 44°07' E 028°39'0 0.0
2017-Dec-11 08:00N 44°07' E 028°39'0 0.0
2017-Dec-11 07:30N 44°07' E 028°39'0 0.0
2017-Dec-11 07:00N 44°07' E 028°39'0 0.0
2017-Dec-11 06:27N 44°07' E 028°39'0 0.0
2017-Dec-11 06:00N 44°07' E 028°39'0 0.0
2017-Dec-11 05:27N 44°07' E 028°39'0 0.0
2017-Dec-11 04:57N 44°07' E 028°39'0 0.0
2017-Dec-11 04:30N 44°07' E 028°39'0 0.0
2017-Dec-11 03:57N 44°07' E 028°39'0 0.0
2017-Dec-11 03:27N 44°07' E 028°39'0 0.0
2017-Dec-11 02:57N 44°07' E 028°39'0 0.0
2017-Dec-11 02:27N 44°07' E 028°39'0 0.0
2017-Dec-11 02:00N 44°07' E 028°39'0 0.0
2017-Dec-11 01:27N 44°07' E 028°39'0 0.0
2017-Dec-11 01:00N 44°07' E 028°39'0 0.0
2017-Dec-11 00:30N 44°07' E 028°39'0 0.0
2017-Dec-11 00:00N 44°07' E 028°39'0 0.0
2017-Dec-10 23:30N 44°07' E 028°39'0 0.0
2017-Dec-10 22:51N 44°07' E 028°39'0 0.0
2017-Dec-10 22:30N 44°07' E 028°39'0 0.0
2017-Dec-10 21:57N 44°07' E 028°39'0 0.0
2017-Dec-10 21:30N 44°07' E 028°39'0 0.0
2017-Dec-10 21:00N 44°07' E 028°39'0 0.0
2017-Dec-10 20:30N 44°07' E 028°39'0 0.0
2017-Dec-10 19:57N 44°07' E 028°39'0 0.0
2017-Dec-10 19:30N 44°07' E 028°39'0 0.0
2017-Dec-10 19:00N 44°07' E 028°39'0 0.0
2017-Dec-10 18:30N 44°07' E 028°39'0 0.0
2017-Dec-10 18:00N 44°07' E 028°39'0 0.0
2017-Dec-10 17:30N 44°07' E 028°39'0 0.0
2017-Dec-10 17:00N 44°07' E 028°39'0 0.0
2017-Dec-10 16:30N 44°07' E 028°39'0 0.0
2017-Dec-10 16:00N 44°07' E 028°39'0 0.0
2017-Dec-10 15:30N 44°07' E 028°39'0 0.0
2017-Dec-10 15:00N 44°07' E 028°39'0 0.0
2017-Dec-10 14:30N 44°07' E 028°39'0 0.0
2017-Dec-10 14:00N 44°07' E 028°39'0 0.0
2017-Dec-10 13:30N 44°07' E 028°39'0 0.0
2017-Dec-10 13:00N 44°07' E 028°39'0 0.0
2017-Dec-10 12:30N 44°07' E 028°39'0 0.0
2017-Dec-10 12:00N 44°07' E 028°39'0 0.0
2017-Dec-10 11:30N 44°07' E 028°39'0 0.0
2017-Dec-10 11:00N 44°07' E 028°39'0 0.0
2017-Dec-10 10:30N 44°07' E 028°39'0 0.0
2017-Dec-10 10:00N 44°07' E 028°39'0 0.0
2017-Dec-10 09:30N 44°07' E 028°39'0 0.0
2017-Dec-10 09:00N 44°07' E 028°39'0 0.0
2017-Dec-10 08:30N 44°07' E 028°39'0 0.0
2017-Dec-10 08:00N 44°07' E 028°39'0 0.0
2017-Dec-10 07:30N 44°07' E 028°39'0 0.0
2017-Dec-10 07:00N 44°07' E 028°39'0 0.0
2017-Dec-10 06:27N 44°07' E 028°39'0 0.0
2017-Dec-10 06:00N 44°07' E 028°39'0 0.0
2017-Dec-10 05:30N 44°07' E 028°39'0 0.0
2017-Dec-10 04:57N 44°07' E 028°39'0 0.0
2017-Dec-10 04:30N 44°07' E 028°39'0 0.0
2017-Dec-10 04:00N 44°07' E 028°39'0 0.0
2017-Dec-10 03:30N 44°07' E 028°39'0 0.0
2017-Dec-10 03:00N 44°07' E 028°39'0 0.0
2017-Dec-10 02:30N 44°07' E 028°39'0 0.0
2017-Dec-10 02:00N 44°07' E 028°39'0 0.0
2017-Dec-10 01:30N 44°07' E 028°39'0 0.0
2017-Dec-10 01:00N 44°07' E 028°39'0 0.0
2017-Dec-10 00:30N 44°07' E 028°39'0 0.0
2017-Dec-10 00:00N 44°07' E 028°39'0 0.0
2017-Dec-09 23:30N 44°07' E 028°39'0 0.0
2017-Dec-09 23:00N 44°07' E 028°39'0 0.0
2017-Dec-09 22:30N 44°07' E 028°39'0 0.0
2017-Dec-09 22:00N 44°07' E 028°39'0 0.0
2017-Dec-09 21:30N 44°07' E 028°39'0 0.0
2017-Dec-09 21:00N 44°07' E 028°39'0 0.0
2017-Dec-09 20:30N 44°07' E 028°39'0 0.0
2017-Dec-09 20:00N 44°07' E 028°39'0 0.0
2017-Dec-09 19:30N 44°07' E 028°39'0 0.0
2017-Dec-09 19:00N 44°07' E 028°39'0 0.0
2017-Dec-09 18:30N 44°07' E 028°39'0 0.0
2017-Dec-09 18:00N 44°07' E 028°39'0 0.0
2017-Dec-09 17:30N 44°07' E 028°39'0 0.0
2017-Dec-09 17:00N 44°07' E 028°39'0 0.0
2017-Dec-09 16:24N 44°07' E 028°39'0 0.0
2017-Dec-09 16:00N 44°07' E 028°39'0 0.0
2017-Dec-09 15:30N 44°07' E 028°39'0 0.0
2017-Dec-09 15:00N 44°07' E 028°39'0 0.0
2017-Dec-09 14:30N 44°07' E 028°39'0 0.0
2017-Dec-09 14:00N 44°07' E 028°39'0 0.0
2017-Dec-09 13:30N 44°07' E 028°39'0 0.0
2017-Dec-09 13:00N 44°07' E 028°39'0 0.0
2017-Dec-09 12:30N 44°07' E 028°39'0 0.0
2017-Dec-09 12:00N 44°07' E 028°39'0 0.0
2017-Dec-09 11:30N 44°07' E 028°39'0 0.0
2017-Dec-09 11:00N 44°07' E 028°39'0 0.0
2017-Dec-09 10:27N 44°07' E 028°39'0 0.0
2017-Dec-09 09:57N 44°07' E 028°39'0 0.0
2017-Dec-09 09:30N 44°07' E 028°39'0 0.0
2017-Dec-09 09:00N 44°07' E 028°39'0 0.0
2017-Dec-09 08:30N 44°07' E 028°39'0 0.0
2017-Dec-09 08:00N 44°07' E 028°39'0 0.0
2017-Dec-09 07:30N 44°07' E 028°39'0 0.0
2017-Dec-09 07:00N 44°07' E 028°39'0 0.0
2017-Dec-09 06:30N 44°07' E 028°39'0 0.0
2017-Dec-09 06:00N 44°07' E 028°39'0 0.0
2017-Dec-09 05:30N 44°07' E 028°39'0 0.0
2017-Dec-09 05:00N 44°07' E 028°39'0 0.0
2017-Dec-09 04:30N 44°07' E 028°39'0 0.0
2017-Dec-09 04:00N 44°07' E 028°39'0 0.0
2017-Dec-09 03:30N 44°07' E 028°39'0 0.0
2017-Dec-09 03:00N 44°07' E 028°39'0 0.0
2017-Dec-09 02:30N 44°07' E 028°39'0 0.0
2017-Dec-09 02:00N 44°07' E 028°39'0 0.0
2017-Dec-09 01:27N 44°07' E 028°39'0 0.0
2017-Dec-09 01:00N 44°07' E 028°39'0 0.0
2017-Dec-09 00:30N 44°07' E 028°39'0 0.0
2017-Dec-09 00:00N 44°07' E 028°39'0 0.0
2017-Dec-08 23:30N 44°07' E 028°39'0 0.0
2017-Dec-08 23:00N 44°07' E 028°39'0 0.0
2017-Dec-08 22:30N 44°07' E 028°39'0 0.0
2017-Dec-08 22:00N 44°07' E 028°39'0 0.0
2017-Dec-08 21:30N 44°07' E 028°39'0 0.0
2017-Dec-08 21:00N 44°07' E 028°39'0 0.0
2017-Dec-08 20:30N 44°07' E 028°39'0 0.0
2017-Dec-08 20:00N 44°07' E 028°39'0 0.0
2017-Dec-08 19:30N 44°07' E 028°39'0 0.0
2017-Dec-08 19:00N 44°07' E 028°39'0 0.0
2017-Dec-08 18:30N 44°07' E 028°39'0 0.0
2017-Dec-08 18:00N 44°07' E 028°39'0 0.0
2017-Dec-08 17:30N 44°07' E 028°39'0 0.0
2017-Dec-08 16:54N 44°07' E 028°39'0 0.0
2017-Dec-08 16:27N 44°07' E 028°39'0 0.0
2017-Dec-08 16:00N 44°07' E 028°39'0 0.0
2017-Dec-08 15:30N 44°07' E 028°39'0 0.0
2017-Dec-08 15:00N 44°07' E 028°39'0 0.0
2017-Dec-08 14:30N 44°07' E 028°39'0 0.0
2017-Dec-08 14:00N 44°07' E 028°39'0 0.0
2017-Dec-08 13:30N 44°07' E 028°39'0 0.0
2017-Dec-08 13:00N 44°07' E 028°39'0 0.0
2017-Dec-08 12:30N 44°07' E 028°39'0 0.0
2017-Dec-08 11:57N 44°07' E 028°39'0 0.0
2017-Dec-08 11:30N 44°07' E 028°39'0 0.0
2017-Dec-08 10:57N 44°07' E 028°39'0 0.0
2017-Dec-08 10:30N 44°07' E 028°39'0 0.0
2017-Dec-08 10:00N 44°07' E 028°39'0 0.0
2017-Dec-08 09:30N 44°07' E 028°39'0 0.0
2017-Dec-08 09:00N 44°07' E 028°39'0 0.0
2017-Dec-08 08:30N 44°07' E 028°39'0 0.0
2017-Dec-08 08:00N 44°07' E 028°39'0 0.0
2017-Dec-08 07:30N 44°07' E 028°39'0 0.0
2017-Dec-08 07:00N 44°07' E 028°39'0 0.0
2017-Dec-08 06:30N 44°07' E 028°39'0 0.0
2017-Dec-08 06:00N 44°07' E 028°39'0 0.0
2017-Dec-08 05:30N 44°07' E 028°39'0 0.0
2017-Dec-08 05:00N 44°07' E 028°39'0 0.0
2017-Dec-08 04:30N 44°07' E 028°39'0 0.0
2017-Dec-08 04:00N 44°07' E 028°39'0 0.0
2017-Dec-08 03:30N 44°07' E 028°39'0 0.0
2017-Dec-08 03:00N 44°07' E 028°39'0 0.0
2017-Dec-08 02:30N 44°07' E 028°39'0 0.0
2017-Dec-08 02:00N 44°07' E 028°39'0 0.0
2017-Dec-08 01:30N 44°07' E 028°39'0 0.0
2017-Dec-08 01:00N 44°07' E 028°39'0 0.0
2017-Dec-08 00:30N 44°07' E 028°39'0 0.0
2017-Dec-08 00:00N 44°07' E 028°39'0 0.0
2017-Dec-07 23:30N 44°07' E 028°39'0 0.0
2017-Dec-07 23:00N 44°07' E 028°39'0 0.0
2017-Dec-07 22:27N 44°07' E 028°39'0 0.0
2017-Dec-07 22:00N 44°07' E 028°39'0 0.0
2017-Dec-07 21:30N 44°07' E 028°39'0 0.0
2017-Dec-07 21:00N 44°07' E 028°39'0 0.0
2017-Dec-07 20:30N 44°07' E 028°39'0 0.0
2017-Dec-07 20:00N 44°07' E 028°39'0 0.0
2017-Dec-07 19:30N 44°07' E 028°39'0 0.0
2017-Dec-07 19:00N 44°07' E 028°39'0 0.0
2017-Dec-07 18:30N 44°07' E 028°39'0 0.0
2017-Dec-07 18:00N 44°07' E 028°39'0 0.0
2017-Dec-07 17:30N 44°07' E 028°39'0 0.0
2017-Dec-07 17:00N 44°07' E 028°39'0 0.0
2017-Dec-07 16:30N 44°07' E 028°39'0 0.0
2017-Dec-07 16:00N 44°07' E 028°39'0 0.0
2017-Dec-07 15:30N 44°07' E 028°39'0 0.0
2017-Dec-07 15:00N 44°07' E 028°39'0 0.0
2017-Dec-07 14:30N 44°07' E 028°39'0 0.0
2017-Dec-07 14:00N 44°07' E 028°39'0 0.0
2017-Dec-07 13:30N 44°07' E 028°39'0 0.0
2017-Dec-07 12:57N 44°07' E 028°39'0 0.0
2017-Dec-07 12:30N 44°07' E 028°39'0 0.0
2017-Dec-07 12:00N 44°07' E 028°39'0 0.0
2017-Dec-07 11:30N 44°07' E 028°39'0 0.0
2017-Dec-07 11:00N 44°07' E 028°39'0 0.0
2017-Dec-07 10:30N 44°07' E 028°39'0 0.0
2017-Dec-07 10:00N 44°07' E 028°39'0 0.0
2017-Dec-07 09:30N 44°07' E 028°39'0 0.0
2017-Dec-07 09:00N 44°07' E 028°39'0 0.0
2017-Dec-07 08:30N 44°07' E 028°39'0 0.0
2017-Dec-07 08:00N 44°07' E 028°39'0 0.0
2017-Dec-07 07:30N 44°07' E 028°39'0 0.0
2017-Dec-07 07:00N 44°07' E 028°39'0 0.0
2017-Dec-07 06:30N 44°07' E 028°39'0 0.0
2017-Dec-07 06:00N 44°07' E 028°39'0 0.0
2017-Dec-07 05:30N 44°07' E 028°39'0 0.0
2017-Dec-07 05:00N 44°07' E 028°39'0 0.0
2017-Dec-07 04:21N 44°07' E 028°39'0 0.0
2017-Dec-07 04:00N 44°07' E 028°39'0 0.0
2017-Dec-07 03:30N 44°07' E 028°39'0 0.0
2017-Dec-07 03:00N 44°07' E 028°39'0 0.0
2017-Dec-07 02:30N 44°07' E 028°39'0 0.0
2017-Dec-07 02:00N 44°07' E 028°39'0 0.0
2017-Dec-07 01:30N 44°07' E 028°39'0 0.0
2017-Dec-07 01:00N 44°07' E 028°39'0 0.0
2017-Dec-07 00:30N 44°07' E 028°39'0 0.0
2017-Dec-07 00:00N 44°07' E 028°39'0 0.0
2017-Dec-06 23:30N 44°07' E 028°39'0 0.0
2017-Dec-06 23:00N 44°07' E 028°39'0 0.0
2017-Dec-06 22:30N 44°07' E 028°39'0 0.0
2017-Dec-06 22:00N 44°07' E 028°39'0 0.0
2017-Dec-06 21:30N 44°07' E 028°39'0 0.0
2017-Dec-06 21:00N 44°07' E 028°39'  
2017-Dec-04 10:24N 44°07' E 028°39'0 0.0
2017-Dec-04 10:00N 44°07' E 028°39'0 0.0
2017-Dec-04 09:30N 44°07' E 028°39'0 0.0
2017-Dec-04 09:00N 44°07' E 028°39'0 0.0
2017-Dec-04 08:31N 44°07' E 028°39'0 0.0
2017-Dec-04 07:59N 44°07' E 028°39'0 0.0
2017-Dec-04 07:29N 44°07' E 028°39'0 0.0
2017-Dec-04 06:56N 44°07' E 028°39'0 0.0
2017-Dec-04 06:29N 44°07' E 028°39'0 0.0
2017-Dec-04 05:59N 44°07' E 028°39'0 0.0
2017-Dec-04 05:29N 44°07' E 028°39'0 0.0
2017-Dec-04 04:59N 44°07' E 028°39'0 0.0
2017-Dec-04 04:29N 44°07' E 028°39'0 0.0
2017-Dec-04 03:56N 44°07' E 028°39'  

Dump ship's entire track history